createdAt,value
2023-03-16T00:00:27.943Z,52.16
2023-03-16T00:03:19.585Z,51.63
2023-03-16T00:06:06.113Z,52.42
2023-03-16T00:08:52.301Z,51.95
2023-03-16T00:11:38.182Z,51.82
2023-03-16T00:14:23.973Z,52.45
2023-03-16T00:17:18.758Z,51.50
2023-03-16T00:20:07.181Z,51.47
2023-03-16T00:22:53.362Z,51.81
2023-03-16T00:25:39.430Z,51.64
2023-03-16T00:28:26.995Z,51.71
2023-03-16T00:31:13.693Z,51.17
2023-03-16T00:34:02.813Z,51.54
2023-03-16T00:36:48.862Z,51.43
2023-03-16T00:39:35.849Z,51.09
2023-03-16T00:42:23.984Z,51.14
2023-03-16T00:45:10.652Z,51.02
2023-03-16T00:47:56.853Z,51.38
2023-03-16T00:50:43.286Z,51.21
2023-03-16T00:53:29.121Z,51.01
2023-03-16T00:56:15.843Z,50.91
2023-03-16T00:59:02.548Z,51.47
2023-03-16T01:01:48.379Z,51.07
2023-03-16T01:04:38.112Z,50.94
2023-03-16T01:07:24.371Z,51.51
2023-03-16T01:10:10.790Z,50.67
2023-03-16T01:12:56.844Z,51.36
2023-03-16T01:15:43.095Z,51.02
2023-03-16T01:18:30.109Z,51.66
2023-03-16T01:21:16.700Z,50.71
2023-03-16T01:24:04.175Z,50.98
2023-03-16T01:26:49.891Z,51.20
2023-03-16T01:29:35.948Z,50.78
2023-03-16T01:32:22.875Z,51.77
2023-03-16T01:35:09.522Z,51.23
2023-03-16T01:37:58.564Z,51.40
2023-03-16T01:40:47.672Z,51.33
2023-03-16T01:43:34.832Z,52.46
2023-03-16T01:46:26.728Z,52.56
2023-03-16T01:49:36.012Z,52.15
2023-03-16T01:52:28.229Z,51.73
2023-03-16T01:55:15.074Z,51.40
2023-03-16T01:58:01.804Z,51.85
2023-03-16T02:00:48.314Z,51.96
2023-03-16T02:03:41.845Z,51.38
2023-03-16T02:06:36.450Z,51.69
2023-03-16T02:09:24.303Z,51.46
2023-03-16T02:12:17.949Z,51.87
2023-03-16T02:15:08.046Z,51.63
2023-03-16T02:17:54.471Z,51.42
2023-03-16T02:21:00.296Z,51.18
2023-03-16T02:23:47.382Z,51.08
2023-03-16T02:26:55.126Z,51.67
2023-03-16T02:29:53.782Z,51.43
2023-03-16T02:32:40.557Z,51.48
2023-03-16T02:35:26.464Z,51.20
2023-03-16T02:38:12.794Z,51.21
2023-03-16T02:41:17.378Z,51.09
2023-03-16T02:44:24.466Z,51.16
2023-03-16T02:47:16.873Z,51.21
2023-03-16T02:50:06.671Z,51.15
2023-03-16T02:52:52.564Z,50.79
2023-03-16T02:55:38.446Z,50.95
2023-03-16T02:58:24.330Z,50.88
2023-03-16T03:01:10.114Z,50.95
2023-03-16T03:03:56.354Z,50.73
2023-03-16T03:06:44.536Z,50.63
2023-03-16T03:09:35.028Z,50.71
2023-03-16T03:12:21.048Z,50.49
2023-03-16T03:15:07.515Z,50.74
2023-03-16T03:18:01.290Z,50.58
2023-03-16T03:20:49.319Z,50.21
2023-03-16T03:23:36.187Z,50.81
2023-03-16T03:26:22.079Z,50.45
2023-03-16T03:29:07.935Z,50.97
2023-03-16T03:31:53.770Z,50.56
2023-03-16T03:34:40.138Z,50.34
2023-03-16T03:37:26.026Z,50.08
2023-03-16T03:40:15.561Z,50.03
2023-03-16T03:43:05.229Z,50.03
2023-03-16T03:45:58.036Z,50.61
2023-03-16T03:48:43.899Z,50.12
2023-03-16T03:51:31.115Z,49.86
2023-03-16T03:54:23.499Z,49.78
2023-03-16T03:57:17.513Z,49.61
2023-03-16T04:00:12.224Z,50.22
2023-03-16T04:03:03.535Z,49.94
2023-03-16T04:05:56.398Z,50.13
2023-03-16T04:08:42.732Z,49.59
2023-03-16T04:11:32.441Z,49.45
2023-03-16T04:14:18.303Z,49.34
2023-03-16T04:17:04.806Z,49.07
2023-03-16T04:19:54.067Z,49.50
2023-03-16T04:22:42.489Z,49.33
2023-03-16T04:25:30.687Z,49.57
2023-03-16T04:28:18.189Z,49.81
2023-03-16T04:31:10.194Z,49.41
2023-03-16T04:34:02.448Z,50.05
2023-03-16T04:36:49.026Z,49.28
2023-03-16T04:39:35.471Z,49.58
2023-03-16T04:42:21.887Z,49.40
2023-03-16T04:45:08.779Z,49.65
2023-03-16T04:47:54.966Z,48.82
2023-03-16T04:50:41.261Z,49.12
2023-03-16T04:53:28.038Z,49.03
2023-03-16T04:56:18.817Z,49.14
2023-03-16T04:59:10.878Z,49.28
2023-03-16T05:02:20.732Z,48.91
2023-03-16T05:05:09.557Z,49.13
2023-03-16T05:07:57.705Z,49.08
2023-03-16T05:10:48.232Z,49.37
2023-03-16T05:13:34.948Z,49.15
2023-03-16T05:16:21.200Z,49.26
2023-03-16T05:19:07.061Z,48.80
2023-03-16T05:21:55.886Z,48.33
2023-03-16T05:24:42.185Z,49.43
2023-03-16T05:27:27.981Z,48.76
2023-03-16T05:30:16.312Z,48.75
2023-03-16T05:33:03.149Z,48.73
2023-03-16T05:35:51.375Z,48.53
2023-03-16T05:38:47.689Z,48.96
2023-03-16T05:41:44.506Z,48.59
2023-03-16T05:44:50.361Z,48.66
2023-03-16T05:47:56.488Z,48.92
2023-03-16T05:50:43.467Z,48.39
2023-03-16T05:53:32.177Z,48.37
2023-03-16T05:56:28.183Z,48.76
2023-03-16T05:59:14.906Z,48.08
2023-03-16T06:02:01.561Z,48.61
2023-03-16T06:04:47.627Z,48.26
2023-03-16T06:07:34.316Z,48.15
2023-03-16T06:10:20.591Z,48.41
2023-03-16T06:13:07.369Z,48.69
2023-03-16T06:15:53.290Z,47.80
2023-03-16T06:18:41.230Z,48.09
2023-03-16T16:23:53.542Z,40.04
2023-03-16T16:26:51.976Z,40.14
2023-03-16T16:29:40.350Z,40.32
2023-03-16T16:32:26.469Z,39.79
2023-03-16T16:35:17.669Z,40.02
2023-03-16T16:38:04.271Z,40.66
2023-03-16T16:40:51.330Z,40.09
2023-03-16T16:43:41.573Z,40.34
2023-03-16T16:46:28.782Z,40.79
2023-03-16T16:49:16.758Z,40.88
2023-03-16T16:52:03.762Z,40.51
2023-03-16T16:54:50.082Z,41.57
2023-03-16T16:57:36.450Z,41.04
2023-03-16T17:00:24.777Z,40.76
2023-03-16T17:03:27.137Z,40.67
2023-03-16T17:06:18.316Z,40.60
2023-03-16T17:09:05.489Z,40.68
2023-03-16T17:11:52.020Z,40.82
2023-03-16T17:14:37.730Z,41.15
2023-03-16T17:17:23.734Z,40.96
2023-03-16T17:20:15.875Z,41.05
2023-03-16T17:23:01.888Z,41.63
2023-03-16T17:25:49.006Z,41.55
2023-03-16T17:28:39.800Z,41.13
2023-03-16T17:31:31.201Z,41.73
2023-03-16T17:34:19.566Z,41.17
2023-03-16T17:37:10.296Z,41.23
2023-03-16T17:39:57.580Z,41.93
2023-03-16T17:42:45.150Z,41.78
2023-03-16T17:45:31.576Z,41.06
2023-03-16T17:48:20.265Z,40.91
2023-03-16T17:51:09.042Z,41.50
2023-03-16T17:53:56.015Z,41.14
2023-03-16T17:56:42.585Z,41.73
2023-03-16T17:59:28.903Z,41.35
2023-03-16T18:02:30.168Z,41.33
2023-03-16T18:05:28.993Z,42.00
2023-03-16T18:08:22.664Z,41.80
2023-03-16T18:11:36.094Z,41.30
2023-03-16T18:14:37.207Z,41.64
2023-03-16T18:17:29.871Z,41.51
2023-03-16T18:20:27.944Z,42.21
2023-03-16T18:23:19.588Z,42.04
2023-03-16T18:26:07.014Z,41.62
2023-03-16T18:28:53.577Z,41.90
2023-03-16T18:31:39.962Z,41.70
2023-03-16T18:34:28.134Z,42.50
2023-03-16T18:37:21.362Z,42.21
2023-03-16T18:40:12.972Z,42.67
2023-03-16T18:42:59.436Z,42.18
2023-03-16T18:45:46.660Z,42.19
2023-03-16T18:48:35.108Z,41.95
2023-03-16T18:51:22.280Z,42.50
2023-03-16T18:54:22.189Z,42.38
2023-03-16T18:57:28.553Z,42.57
2023-03-16T19:00:20.568Z,42.44
2023-03-16T19:03:10.335Z,42.18
2023-03-16T19:05:58.304Z,42.40
2023-03-16T19:08:44.491Z,42.62
2023-03-16T19:11:32.448Z,42.83
2023-03-16T19:14:18.981Z,42.47
2023-03-16T19:17:06.689Z,42.61
2023-03-16T19:19:54.966Z,42.25
2023-03-16T19:22:48.124Z,42.43
2023-03-16T19:25:39.588Z,42.91
2023-03-16T19:28:29.299Z,42.73
2023-03-16T19:31:15.859Z,42.55
2023-03-16T19:34:02.385Z,42.70
2023-03-16T19:36:49.287Z,42.92
2023-03-16T19:39:36.049Z,42.51
2023-03-16T19:42:32.153Z,42.68
2023-03-16T19:45:34.426Z,42.95
2023-03-16T19:48:28.748Z,42.81
2023-03-16T19:51:20.132Z,42.56
2023-03-16T19:54:07.402Z,42.52
2023-03-16T19:56:56.228Z,42.70
2023-03-16T19:59:46.269Z,42.97
2023-03-16T20:02:40.748Z,42.95
2023-03-16T20:05:29.971Z,42.71
2023-03-16T20:08:26.027Z,43.06
2023-03-16T20:11:18.900Z,42.94
2023-03-16T20:14:04.914Z,44.19
2023-03-16T20:16:51.366Z,43.10
2023-03-16T20:19:37.601Z,44.55
2023-03-16T20:22:28.579Z,43.41
2023-03-16T20:25:14.568Z,43.51
2023-03-16T20:28:02.278Z,43.26
2023-03-16T20:30:49.141Z,43.63
2023-03-16T20:33:35.070Z,43.54
2023-03-16T20:36:22.155Z,42.98
2023-03-16T20:39:08.210Z,43.51
2023-03-16T20:41:54.512Z,43.26
2023-03-16T20:44:41.139Z,43.49
2023-03-16T20:47:27.852Z,43.43
2023-03-16T20:50:19.989Z,43.86
2023-03-16T20:53:06.373Z,43.76
2023-03-16T20:55:52.881Z,43.28
2023-03-16T20:58:39.468Z,43.52
2023-03-16T21:01:26.767Z,43.93
2023-03-16T21:04:22.474Z,43.40
2023-03-16T21:07:09.024Z,43.54
2023-03-16T21:09:55.050Z,43.59
2023-03-16T21:12:45.993Z,43.00
2023-03-16T21:15:33.591Z,43.41
2023-03-16T21:18:21.593Z,43.57
2023-03-16T21:21:14.006Z,43.32
2023-03-16T21:24:03.277Z,43.30
2023-03-16T21:26:49.436Z,43.29
2023-03-16T21:29:36.912Z,43.43
2023-03-16T21:32:26.564Z,43.05
2023-03-16T21:35:14.831Z,42.88
2023-03-16T21:38:14.264Z,42.76
2023-03-16T21:41:00.983Z,43.28
2023-03-16T21:43:47.263Z,43.41
2023-03-16T21:46:33.767Z,43.15
2023-03-16T21:49:19.917Z,43.36
2023-03-16T21:52:16.228Z,43.27
2023-03-16T21:55:02.581Z,43.58
2023-03-16T21:57:49.445Z,42.99
2023-03-16T22:00:35.702Z,43.64
2023-03-16T22:03:37.815Z,43.46
2023-03-16T22:06:33.900Z,42.93
2023-03-16T22:09:21.036Z,43.43
2023-03-16T22:12:09.532Z,43.01
2023-03-16T22:14:55.499Z,42.60
2023-03-16T22:17:41.834Z,43.07
2023-03-16T22:20:28.211Z,43.04
2023-03-16T22:23:35.044Z,42.99
2023-03-16T22:26:22.634Z,43.46
2023-03-16T22:29:44.211Z,43.12
2023-03-16T22:32:30.809Z,43.36
2023-03-16T22:35:27.602Z,42.92
2023-03-16T22:38:14.556Z,42.83
2023-03-16T22:41:00.768Z,43.02
2023-03-16T22:43:46.779Z,42.95
2023-03-16T22:46:32.749Z,42.75
2023-03-16T22:49:36.873Z,44.21
2023-03-16T22:52:27.926Z,42.85
2023-03-16T22:55:24.027Z,42.84
2023-03-16T22:58:18.977Z,42.89
2023-03-16T23:01:42.671Z,42.80
2023-03-16T23:04:32.745Z,43.56
2023-03-16T23:07:19.784Z,42.58
2023-03-16T23:10:06.203Z,43.04
2023-03-16T23:12:52.486Z,42.89
2023-03-16T23:15:38.414Z,42.66
2023-03-16T23:18:25.906Z,42.30
2023-03-16T23:21:15.323Z,42.56
2023-03-16T23:24:04.260Z,42.87
2023-03-16T23:26:51.972Z,42.91
2023-03-16T23:29:37.778Z,42.71
2023-03-16T23:32:23.785Z,42.96
2023-03-16T23:35:21.914Z,42.88
2023-03-16T23:38:08.365Z,42.41
2023-03-16T23:40:54.519Z,42.55
2023-03-16T23:43:41.770Z,42.49
2023-03-16T23:46:29.395Z,42.50
2023-03-16T23:49:27.331Z,42.54
2023-03-16T23:52:14.545Z,42.25
2023-03-16T23:55:01.437Z,42.52
2023-03-16T23:57:47.373Z,42.21
